createdAt,value
2022-08-22T00:00:53.385Z,16.34
2022-08-22T00:01:53.392Z,16.28
2022-08-22T00:02:42.672Z,20.72
2022-08-22T00:02:42.774Z,20.69
2022-08-22T00:02:44.022Z,18.62
2022-08-22T00:03:00.233Z,22.91
2022-08-22T00:03:02.257Z,20.05
2022-08-22T00:03:10.195Z,18.90
2022-08-22T00:03:12.378Z,21.96
2022-08-22T00:03:17.627Z,16.08
2022-08-22T00:03:55.361Z,16.09
2022-08-22T00:04:53.346Z,16.07
2022-08-22T00:05:53.338Z,16.07
2022-08-22T00:06:53.325Z,16.12
2022-08-22T00:07:53.329Z,16.07
2022-08-22T00:08:54.317Z,16.05
2022-08-22T00:09:53.346Z,16.05
2022-08-22T00:10:53.302Z,16.05
2022-08-22T00:11:53.275Z,16.01
2022-08-22T00:12:53.260Z,16.05
2022-08-22T00:14:01.822Z,15.86
2022-08-22T00:14:55.270Z,15.93
2022-08-22T00:15:53.253Z,15.86
2022-08-22T00:16:53.503Z,15.89
2022-08-22T00:17:53.373Z,15.80
2022-08-22T00:18:53.215Z,15.76
2022-08-22T00:19:53.201Z,15.69
2022-08-22T00:20:54.214Z,15.78
2022-08-22T00:21:53.182Z,15.80
2022-08-22T00:22:53.177Z,15.89
2022-08-22T00:23:53.173Z,15.82
2022-08-22T00:24:53.154Z,15.90
2022-08-22T00:25:53.151Z,15.87
2022-08-22T00:26:53.130Z,15.89
2022-08-22T00:27:53.117Z,15.96
2022-08-22T00:28:53.131Z,16.07
2022-08-22T00:29:53.097Z,16.02
2022-08-22T00:30:53.086Z,15.92
2022-08-22T00:31:53.085Z,16.00
2022-08-22T00:32:53.071Z,15.97
2022-08-22T00:33:53.075Z,16.00
2022-08-22T00:34:53.081Z,15.96
2022-08-22T00:35:53.052Z,15.90
2022-08-22T00:36:53.097Z,15.96
2022-08-22T00:37:54.063Z,15.89
2022-08-22T00:38:53.015Z,15.86
2022-08-22T00:39:53.044Z,15.90
2022-08-22T00:40:52.995Z,16.00
2022-08-22T00:41:52.976Z,15.94
2022-08-22T00:42:52.988Z,15.84
2022-08-22T00:43:52.950Z,15.92
2022-08-22T00:44:53.962Z,15.94
2022-08-22T00:45:52.938Z,15.94
2022-08-22T00:46:53.027Z,16.02
2022-08-22T00:47:52.960Z,16.01
2022-08-22T00:48:52.911Z,16.01
2022-08-22T00:49:52.932Z,15.93
2022-08-22T00:50:52.902Z,15.90
2022-08-22T00:51:52.869Z,15.93
2022-08-22T00:52:52.879Z,15.94
2022-08-22T00:53:52.869Z,15.84
2022-08-22T00:54:52.848Z,15.78
2022-08-22T00:55:52.886Z,15.86
2022-08-22T00:56:53.049Z,15.69
2022-08-22T00:57:52.889Z,15.67
2022-08-22T00:58:52.859Z,15.69
2022-08-22T00:59:52.810Z,15.76
2022-08-22T01:00:52.820Z,15.62
2022-08-22T01:01:52.791Z,15.74
2022-08-22T01:02:53.062Z,15.74
2022-08-22T01:04:24.680Z,15.71
2022-08-22T01:04:52.746Z,15.69
2022-08-22T01:05:52.736Z,15.75
2022-08-22T01:06:52.732Z,15.59
2022-08-22T01:07:52.808Z,15.53
2022-08-22T01:08:52.719Z,15.54
2022-08-22T01:09:52.693Z,15.47
2022-08-22T01:10:52.694Z,15.50
2022-08-22T01:11:52.672Z,15.49
2022-08-22T01:12:52.665Z,15.51
2022-08-22T01:13:52.689Z,15.39
2022-08-22T01:14:52.655Z,15.39
2022-08-22T01:15:52.637Z,15.34
2022-08-22T01:16:52.626Z,15.32
2022-08-22T01:17:52.642Z,15.19
2022-08-22T01:18:52.626Z,15.27
2022-08-22T01:19:52.623Z,15.21
2022-08-22T01:20:52.604Z,15.20
2022-08-22T01:21:52.610Z,15.21
2022-08-22T01:22:52.599Z,15.20
2022-08-22T01:23:52.556Z,15.09
2022-08-22T01:24:52.548Z,15.14
2022-08-22T01:25:52.554Z,15.06
2022-08-22T01:26:52.552Z,15.07
2022-08-22T01:27:52.667Z,15.09
2022-08-22T01:28:52.535Z,15.02
2022-08-22T01:29:52.509Z,15.02
2022-08-22T01:30:52.487Z,15.02
2022-08-22T01:31:52.499Z,14.99
2022-08-22T01:32:57.139Z,14.98
2022-08-22T01:33:52.490Z,15.03
2022-08-22T01:34:52.461Z,14.96
2022-08-22T01:35:52.435Z,14.95
2022-08-22T01:36:52.449Z,15.01
2022-08-22T01:37:52.433Z,15.03
2022-08-22T01:38:52.424Z,15.03
2022-08-22T01:39:52.465Z,14.95
2022-08-22T01:40:53.731Z,15.13
2022-08-22T01:41:52.377Z,15.02
2022-08-22T01:42:52.373Z,15.01
2022-08-22T01:44:00.728Z,15.10
2022-08-22T01:44:53.368Z,15.03
2022-08-22T01:45:52.356Z,15.10
2022-08-22T01:46:52.328Z,15.06
2022-08-22T01:47:54.237Z,15.07
2022-08-22T01:48:52.303Z,15.06
2022-08-22T01:49:52.318Z,15.14
2022-08-22T01:50:52.289Z,15.14
2022-08-22T01:51:52.287Z,15.02
2022-08-22T01:52:52.271Z,15.09
2022-08-22T01:53:52.271Z,15.09
2022-08-22T01:54:52.274Z,15.07
2022-08-22T01:55:52.250Z,15.09
2022-08-22T01:56:52.233Z,15.11
2022-08-22T01:57:52.269Z,15.14
2022-08-22T01:58:52.218Z,14.99
2022-08-22T01:59:52.217Z,14.98
2022-08-22T02:00:52.248Z,14.78
2022-08-22T02:01:52.177Z,14.83
2022-08-22T02:02:52.180Z,14.73
2022-08-22T02:03:52.152Z,14.69
2022-08-22T02:04:52.168Z,14.68
2022-08-22T02:05:52.155Z,14.78
2022-08-22T02:06:52.158Z,14.84
2022-08-22T02:07:52.220Z,14.68
2022-08-22T02:08:52.112Z,14.70
2022-08-22T02:09:52.099Z,14.80
2022-08-22T02:10:52.089Z,14.72
2022-08-22T02:11:52.084Z,14.60
2022-08-22T02:12:52.091Z,14.68
2022-08-22T02:13:52.056Z,14.69
2022-08-22T02:14:52.075Z,14.62
2022-08-22T02:15:52.040Z,14.54
2022-08-22T02:16:52.032Z,14.52
2022-08-22T02:17:52.018Z,14.50
2022-08-22T02:18:52.006Z,14.33
2022-08-22T02:19:52.028Z,14.40
2022-08-22T02:20:52.006Z,14.36
2022-08-22T02:21:52.007Z,14.25
2022-08-22T02:22:51.983Z,14.42
2022-08-22T02:23:51.963Z,14.33
2022-08-22T02:24:51.958Z,14.40
2022-08-22T02:25:51.971Z,14.55
2022-08-22T02:26:51.939Z,14.54
2022-08-22T02:27:51.936Z,14.47
2022-08-22T02:28:57.422Z,14.57
2022-08-22T02:29:52.933Z,14.60
2022-08-22T02:30:51.940Z,14.61
2022-08-22T02:31:51.875Z,14.68
2022-08-22T02:32:51.869Z,14.62
2022-08-22T02:33:51.887Z,14.61
2022-08-22T02:34:51.864Z,14.45
2022-08-22T02:35:51.866Z,14.43
2022-08-22T02:36:51.844Z,14.45
2022-08-22T02:37:51.827Z,14.43
2022-08-22T02:38:51.826Z,14.39
2022-08-22T02:39:51.871Z,14.36
2022-08-22T02:40:51.806Z,14.32
2022-08-22T02:41:51.780Z,14.32
2022-08-22T02:42:51.778Z,14.40
2022-08-22T02:43:51.760Z,14.32
2022-08-22T02:44:51.766Z,14.25
2022-08-22T02:45:51.745Z,14.32
2022-08-22T02:46:51.724Z,14.32
2022-08-22T02:47:51.785Z,14.32
2022-08-22T02:48:51.733Z,14.29
2022-08-22T02:49:51.722Z,14.36
2022-08-22T02:50:51.693Z,14.28
2022-08-22T02:51:51.678Z,14.37
2022-08-22T02:52:51.691Z,14.45
2022-08-22T02:53:51.671Z,14.36
2022-08-22T02:54:51.649Z,14.33
2022-08-22T02:55:51.644Z,14.42
2022-08-22T02:56:51.654Z,14.40
2022-08-22T02:57:51.648Z,14.43
2022-08-22T02:58:51.637Z,14.37
2022-08-22T02:59:51.598Z,14.45
2022-08-22T03:00:51.614Z,14.43
2022-08-22T03:01:51.632Z,14.40
2022-08-22T03:02:52.578Z,14.42
2022-08-22T03:03:51.606Z,14.29
2022-08-22T03:04:51.554Z,14.20
2022-08-22T03:05:51.543Z,14.17
2022-08-22T03:06:51.549Z,14.14
2022-08-22T03:07:51.536Z,14.04
2022-08-22T03:08:51.507Z,13.99
2022-08-22T03:09:51.509Z,14.00
2022-08-22T03:10:51.511Z,13.95
2022-08-22T03:11:51.505Z,14.00
2022-08-22T03:12:54.710Z,14.00
2022-08-22T03:13:52.457Z,13.97
2022-08-22T03:14:51.442Z,13.99
2022-08-22T03:15:51.439Z,14.03
2022-08-22T03:16:51.488Z,13.96
2022-08-22T03:17:51.410Z,14.06
2022-08-22T03:18:51.416Z,13.95
2022-08-22T03:19:51.402Z,14.03
2022-08-22T03:20:51.399Z,13.92
2022-08-22T03:21:51.413Z,14.02
2022-08-22T03:22:51.372Z,13.99
2022-08-22T03:23:51.370Z,13.91
2022-08-22T03:24:51.354Z,13.97
2022-08-22T03:25:51.352Z,13.87
2022-08-22T03:26:51.352Z,13.92
2022-08-22T03:27:51.359Z,13.87
2022-08-22T03:28:59.041Z,13.87
2022-08-22T03:29:52.309Z,13.91
2022-08-22T03:30:51.361Z,13.82
2022-08-22T03:31:51.301Z,13.77
2022-08-22T03:32:51.311Z,13.88
2022-08-22T03:33:51.266Z,13.75
2022-08-22T03:34:51.260Z,13.81
2022-08-22T03:35:51.259Z,13.84
2022-08-22T03:36:51.234Z,13.85
2022-08-22T03:37:51.241Z,13.73
2022-08-22T03:38:51.224Z,13.75
2022-08-22T03:39:51.347Z,13.77
2022-08-22T03:40:51.222Z,13.77
2022-08-22T03:41:51.194Z,13.77
2022-08-22T03:42:51.202Z,13.67
2022-08-22T03:43:51.180Z,13.75
2022-08-22T03:44:51.177Z,13.69
2022-08-22T03:45:51.184Z,13.71
2022-08-22T03:46:51.160Z,13.79
2022-08-22T03:47:51.138Z,13.70
2022-08-22T03:48:51.142Z,13.73
2022-08-22T03:49:51.141Z,13.67
2022-08-22T03:50:51.115Z,13.69
2022-08-22T03:51:51.114Z,13.62
2022-08-22T03:52:51.096Z,13.64
2022-08-22T03:53:51.101Z,13.67
2022-08-22T03:54:51.093Z,13.69
2022-08-22T03:55:51.063Z,13.59
2022-08-22T03:56:54.069Z,13.52
2022-08-22T03:57:52.071Z,13.57
2022-08-22T03:58:51.029Z,13.69
2022-08-22T03:59:51.051Z,13.52
2022-08-22T04:00:51.045Z,13.54
2022-08-22T04:01:52.019Z,13.42
2022-08-22T04:02:50.981Z,13.49
2022-08-22T04:03:51.995Z,13.52
2022-08-22T04:04:50.988Z,13.44
2022-08-22T04:05:51.014Z,13.54
2022-08-22T04:06:53.745Z,13.48
2022-08-22T04:07:51.942Z,13.46
2022-08-22T04:08:50.967Z,13.59
2022-08-22T04:09:50.923Z,13.60
2022-08-22T04:10:50.915Z,13.63
2022-08-22T04:11:50.908Z,13.51
2022-08-22T04:12:50.906Z,13.55
2022-08-22T04:13:50.913Z,13.49
2022-08-22T04:14:50.888Z,13.57
2022-08-22T04:15:50.877Z,13.45
2022-08-22T04:16:50.937Z,13.55
2022-08-22T04:17:50.882Z,13.70
2022-08-22T04:18:50.868Z,13.71
2022-08-22T04:19:50.826Z,13.71
2022-08-22T04:20:50.819Z,13.75
2022-08-22T04:21:50.814Z,13.63
2022-08-22T04:22:50.818Z,13.70
2022-08-22T04:23:50.803Z,13.78
2022-08-22T04:24:52.127Z,13.71
2022-08-22T04:25:50.780Z,13.69
2022-08-22T04:26:50.758Z,13.62
2022-08-22T04:27:50.824Z,13.66
2022-08-22T04:28:50.759Z,13.63
2022-08-22T04:29:50.735Z,13.66
2022-08-22T04:30:50.721Z,13.69
2022-08-22T04:31:50.718Z,13.67
2022-08-22T04:32:50.732Z,13.70
2022-08-22T04:33:50.702Z,13.81
2022-08-22T04:34:50.681Z,13.84
2022-08-22T04:35:50.686Z,13.85
2022-08-22T04:36:50.746Z,13.75
2022-08-22T04:37:50.678Z,13.73
2022-08-22T04:38:50.640Z,13.69
2022-08-22T04:39:50.712Z,13.73
2022-08-22T04:40:50.634Z,13.71
2022-08-22T04:41:50.657Z,13.73
2022-08-22T04:42:50.608Z,13.69
2022-08-22T04:43:50.610Z,13.59
2022-08-22T04:44:50.624Z,13.78
2022-08-22T04:45:50.580Z,13.63
2022-08-22T04:46:50.565Z,13.71
2022-08-22T04:47:54.395Z,13.81
2022-08-22T04:48:50.555Z,13.96
2022-08-22T04:49:50.555Z,14.36
2022-08-22T04:50:50.548Z,14.80
2022-08-22T04:51:50.522Z,15.28
2022-08-22T04:52:50.514Z,15.84
2022-08-22T04:53:50.535Z,16.24
2022-08-22T04:54:50.491Z,16.76
2022-08-22T04:55:50.479Z,16.86
2022-08-22T04:56:50.476Z,17.16
2022-08-22T04:57:50.461Z,17.51
2022-08-22T04:58:50.471Z,17.84
2022-08-22T04:59:50.442Z,18.12
2022-08-22T05:00:50.440Z,18.45
2022-08-22T05:01:50.538Z,18.51
2022-08-22T05:02:50.426Z,18.44
2022-08-22T05:03:50.408Z,18.48
2022-08-22T05:04:50.414Z,18.29
2022-08-22T05:05:50.427Z,18.42
2022-08-22T05:06:50.385Z,18.51
2022-08-22T05:07:50.370Z,18.60
2022-08-22T05:08:53.761Z,18.66
2022-08-22T05:09:50.358Z,18.63
2022-08-22T05:10:50.364Z,18.72
2022-08-22T05:11:50.359Z,18.70
2022-08-22T05:12:50.349Z,18.98
2022-08-22T05:13:50.314Z,19.22
2022-08-22T05:14:50.335Z,19.23
2022-08-22T05:15:50.299Z,19.65
2022-08-22T05:16:50.289Z,19.88
2022-08-22T05:17:50.323Z,19.99
2022-08-22T05:18:50.296Z,20.28
2022-08-22T05:19:50.271Z,20.31
2022-08-22T05:20:50.252Z,20.61
2022-08-22T05:21:50.257Z,20.66
2022-08-22T05:22:50.239Z,20.74
2022-08-22T05:23:50.249Z,20.85
2022-08-22T05:24:50.232Z,20.91
2022-08-22T05:25:50.212Z,21.12
2022-08-22T05:26:50.185Z,21.19
2022-08-22T05:27:53.268Z,21.34
2022-08-22T05:28:53.081Z,21.38
2022-08-22T05:29:51.180Z,21.64
2022-08-22T05:30:50.153Z,21.52
2022-08-22T05:31:50.151Z,21.25
2022-08-22T05:32:50.145Z,21.31
2022-08-22T05:33:50.128Z,21.42
2022-08-22T05:34:51.410Z,21.47
2022-08-22T05:35:53.406Z,21.62
2022-08-22T05:36:52.107Z,21.54
2022-08-22T05:37:50.101Z,21.67
2022-08-22T05:38:50.079Z,21.64
2022-08-22T05:39:50.109Z,21.49
2022-08-22T05:40:50.082Z,21.68
2022-08-22T05:41:50.042Z,21.72
2022-08-22T05:42:50.046Z,21.94
2022-08-22T05:43:50.026Z,22.10
2022-08-22T05:44:50.017Z,22.27
2022-08-22T05:45:50.019Z,22.49
2022-08-22T05:46:50.022Z,22.47
2022-08-22T05:47:49.994Z,22.62
2022-08-22T05:48:49.975Z,22.45
2022-08-22T05:49:49.982Z,22.57
2022-08-22T05:50:51.052Z,22.77
2022-08-22T05:51:49.981Z,22.94
2022-08-22T05:52:49.933Z,23.01
2022-08-22T05:53:49.936Z,23.23
2022-08-22T05:54:49.912Z,23.36
2022-08-22T05:55:49.910Z,23.20
2022-08-22T05:56:49.892Z,23.19
2022-08-22T05:57:49.899Z,23.25
2022-08-22T05:58:49.896Z,23.31
2022-08-22T05:59:49.867Z,23.38
2022-08-22T06:00:49.879Z,23.60
2022-08-22T06:01:49.868Z,23.68
2022-08-22T06:02:49.878Z,23.47
2022-08-22T06:03:49.825Z,23.47
2022-08-22T06:04:49.818Z,23.61
2022-08-22T06:05:49.814Z,23.72
2022-08-22T06:06:49.797Z,23.53
2022-08-22T06:07:49.813Z,23.65
2022-08-22T06:08:49.785Z,23.78
2022-08-22T06:09:49.782Z,23.87
2022-08-22T06:10:49.767Z,24.15
2022-08-22T06:11:51.642Z,23.95
2022-08-22T06:12:49.737Z,24.09
2022-08-22T06:13:49.729Z,24.08
2022-08-22T06:14:49.745Z,24.09
2022-08-22T06:15:49.710Z,24.30
2022-08-22T06:16:49.704Z,24.31
2022-08-22T06:17:49.701Z,24.58
2022-08-22T06:18:49.694Z,24.69
2022-08-22T06:19:49.707Z,24.71
2022-08-22T06:20:49.658Z,24.88
2022-08-22T06:21:49.667Z,25.05
2022-08-22T06:22:49.639Z,25.25
2022-08-22T06:23:49.634Z,25.43
2022-08-22T06:24:49.649Z,25.38
2022-08-22T06:25:49.617Z,25.33
2022-08-22T06:26:49.632Z,25.30
2022-08-22T06:27:49.603Z,25.45
2022-08-22T06:28:55.035Z,25.32
2022-08-22T06:29:50.582Z,25.40
2022-08-22T06:30:49.571Z,25.30
2022-08-22T06:31:49.585Z,25.42
2022-08-22T06:32:59.298Z,25.46
2022-08-22T06:33:50.558Z,25.64
2022-08-22T06:34:49.529Z,25.70
2022-08-22T06:35:49.541Z,25.91
2022-08-22T06:36:49.520Z,26.06
2022-08-22T06:37:49.551Z,26.29
2022-08-22T06:38:49.516Z,26.36
2022-08-22T06:39:49.532Z,26.45
2022-08-22T06:40:49.507Z,26.35
2022-08-22T06:41:49.465Z,26.69
2022-08-22T06:42:49.451Z,26.99
2022-08-22T06:43:49.441Z,27.07
2022-08-22T06:44:49.434Z,26.87
2022-08-22T06:45:49.452Z,26.75
2022-08-22T06:46:49.425Z,26.58
2022-08-22T06:47:50.196Z,26.23
2022-08-22T06:48:49.458Z,26.13
2022-08-22T06:49:49.412Z,26.26
2022-08-22T06:50:49.390Z,26.39
2022-08-22T06:51:49.384Z,26.43
2022-08-22T06:52:49.371Z,26.47
2022-08-22T06:53:49.360Z,26.67
2022-08-22T06:54:49.374Z,27.07
2022-08-22T06:55:49.342Z,27.25
2022-08-22T06:56:49.354Z,27.37
2022-08-22T06:57:49.445Z,27.51
2022-08-22T06:58:49.316Z,27.84
2022-08-22T06:59:49.306Z,28.12
2022-08-22T07:00:53.551Z,28.06
2022-08-22T07:01:51.336Z,28.14
2022-08-22T07:02:49.297Z,28.34
2022-08-22T07:04:21.177Z,28.52
2022-08-22T07:04:49.273Z,28.36
2022-08-22T07:05:49.286Z,28.24
2022-08-22T07:06:49.253Z,28.24
2022-08-22T07:07:49.267Z,28.41
2022-08-22T07:08:49.243Z,28.31
2022-08-22T07:09:49.224Z,28.14
2022-08-22T07:10:49.216Z,28.27
2022-08-22T07:11:49.195Z,28.34
2022-08-22T07:12:49.223Z,28.12
2022-08-22T07:13:49.198Z,28.21
2022-08-22T07:14:49.204Z,28.29
2022-08-22T07:15:49.184Z,28.83
2022-08-22T07:16:49.183Z,28.92
2022-08-22T07:17:49.201Z,29.16
2022-08-22T07:18:49.175Z,29.33
2022-08-22T07:19:49.143Z,29.12
2022-08-22T07:20:49.131Z,28.92
2022-08-22T07:21:49.156Z,28.95
2022-08-22T07:22:49.113Z,29.18
2022-08-22T07:23:49.109Z,29.36
2022-08-22T07:24:49.087Z,29.41
2022-08-22T07:25:49.092Z,29.49
2022-08-22T07:26:49.089Z,29.63
2022-08-22T07:27:49.108Z,29.71
2022-08-22T07:28:51.493Z,29.49
2022-08-22T07:29:49.048Z,29.37
2022-08-22T07:30:49.032Z,29.53
2022-08-22T07:31:49.062Z,29.74
2022-08-22T07:32:49.037Z,29.71
2022-08-22T07:33:49.010Z,29.73
2022-08-22T07:34:49.020Z,29.64
2022-08-22T07:35:53.427Z,29.53
2022-08-22T07:36:49.059Z,29.28
2022-08-22T07:37:49.082Z,29.42
2022-08-22T07:38:49.069Z,29.57
2022-08-22T07:39:49.002Z,29.68
2022-08-22T07:40:48.952Z,29.39
2022-08-22T07:41:48.935Z,29.53
2022-08-22T07:42:48.936Z,29.45
2022-08-22T07:43:48.940Z,29.02
2022-08-22T07:44:48.927Z,28.39
2022-08-22T07:45:48.911Z,28.19
2022-08-22T07:46:49.082Z,28.21
2022-08-22T07:47:49.851Z,28.39
2022-08-22T07:49:08.179Z,28.54
2022-08-22T07:49:50.881Z,28.68
2022-08-22T07:50:48.864Z,29.08
2022-08-22T07:51:48.872Z,29.24
2022-08-22T07:52:48.856Z,29.21
2022-08-22T07:53:48.916Z,29.76
2022-08-22T07:54:48.848Z,29.94
2022-08-22T07:55:49.872Z,30.04
2022-08-22T07:56:48.825Z,30.08
2022-08-22T07:57:48.812Z,29.98
2022-08-22T07:58:48.802Z,29.92
2022-08-22T07:59:48.784Z,29.97
2022-08-22T08:00:48.799Z,30.00
2022-08-22T08:01:48.845Z,29.78
2022-08-22T08:02:49.759Z,29.98
2022-08-22T08:03:48.747Z,29.89
2022-08-22T08:04:48.730Z,30.17
2022-08-22T08:05:48.758Z,30.32
2022-08-22T08:06:48.723Z,30.45
2022-08-22T08:07:48.718Z,30.38
2022-08-22T08:08:48.703Z,30.38
2022-08-22T08:09:48.702Z,30.13
2022-08-22T08:10:48.710Z,30.10
2022-08-22T08:11:48.677Z,30.24
2022-08-22T08:12:54.150Z,29.79
2022-08-22T08:13:49.666Z,29.61
2022-08-22T08:14:48.660Z,29.63
2022-08-22T08:15:48.648Z,29.89
2022-08-22T08:16:48.652Z,29.89
2022-08-22T08:17:48.626Z,29.94
2022-08-22T08:18:48.713Z,30.13
2022-08-22T08:19:48.649Z,30.22
2022-08-22T08:20:48.595Z,30.42
2022-08-22T08:21:48.592Z,30.55
2022-08-22T08:22:48.581Z,30.92
2022-08-22T08:23:48.573Z,31.12
2022-08-22T08:24:48.587Z,31.20
2022-08-22T08:25:48.559Z,31.25
2022-08-22T08:26:48.549Z,31.25
2022-08-22T08:27:50.555Z,31.25
2022-08-22T08:28:48.556Z,31.46
2022-08-22T08:29:48.543Z,31.46
2022-08-22T08:30:48.521Z,31.26
2022-08-22T08:31:48.507Z,31.06
2022-08-22T08:32:48.507Z,31.13
2022-08-22T08:33:48.479Z,31.09
2022-08-22T08:34:48.491Z,31.16
2022-08-22T08:36:01.918Z,31.14
2022-08-22T08:36:50.474Z,30.98
2022-08-22T08:37:48.441Z,31.12
2022-08-22T08:38:48.468Z,31.02
2022-08-22T08:39:48.464Z,31.06
2022-08-22T08:40:48.507Z,31.20
2022-08-22T08:41:48.403Z,31.21
2022-08-22T08:42:48.395Z,31.25
2022-08-22T08:43:48.400Z,31.36
2022-08-22T08:44:48.367Z,31.09
2022-08-22T08:45:48.377Z,31.09
2022-08-22T08:46:55.508Z,31.09
2022-08-22T08:47:48.354Z,31.12
2022-08-22T08:48:48.358Z,30.83
2022-08-22T08:49:50.482Z,30.80
2022-08-22T08:50:48.328Z,31.07
2022-08-22T08:51:48.318Z,31.20
2022-08-22T08:52:52.247Z,31.16
2022-08-22T08:53:49.309Z,31.20
2022-08-22T08:54:48.290Z,31.38
2022-08-22T08:55:48.283Z,31.20
2022-08-22T08:56:48.270Z,31.28
2022-08-22T08:57:48.255Z,31.34
2022-08-22T08:58:48.804Z,31.51
2022-08-22T08:59:48.251Z,31.65
2022-08-22T09:00:48.848Z,31.58
2022-08-22T09:01:48.284Z,31.56
2022-08-22T09:02:48.209Z,31.58
2022-08-22T09:03:48.200Z,31.81
2022-08-22T09:04:48.194Z,31.75
2022-08-22T09:05:48.188Z,31.96
2022-08-22T09:07:49.245Z,31.85
2022-08-22T09:08:50.670Z,32.01
2022-08-22T09:09:52.588Z,31.88
2022-08-22T09:10:48.167Z,31.72
2022-08-22T09:11:48.144Z,31.29
2022-08-22T09:13:11.759Z,31.04
2022-08-22T09:13:49.114Z,31.09
2022-08-22T09:14:48.102Z,30.94
2022-08-22T09:15:59.661Z,30.79
2022-08-22T09:16:51.268Z,30.95
2022-08-22T09:17:48.098Z,31.04
2022-08-22T09:18:48.065Z,31.26
2022-08-22T09:19:48.098Z,31.35
2022-08-22T09:20:48.177Z,31.29
2022-08-22T09:21:48.057Z,31.25
2022-08-22T09:22:50.312Z,31.34
2022-08-22T09:23:48.033Z,31.25
2022-08-22T09:24:48.040Z,31.44
2022-08-22T09:25:48.013Z,31.44
2022-08-22T09:26:47.989Z,31.56
2022-08-22T09:27:49.019Z,31.56
2022-08-22T09:28:47.982Z,31.61
2022-08-22T09:29:54.911Z,31.73
2022-08-22T09:30:48.998Z,31.76
2022-08-22T09:31:52.576Z,30.92
2022-08-22T09:32:48.947Z,30.43
2022-08-22T09:33:47.940Z,30.51
2022-08-22T09:34:47.933Z,30.67
2022-08-22T09:35:47.945Z,30.92
2022-08-22T09:36:47.949Z,31.10
2022-08-22T09:37:48.444Z,31.17
2022-08-22T09:38:48.288Z,31.23
2022-08-22T09:39:49.478Z,31.43
2022-08-22T09:40:15.327Z,31.88
2022-08-22T09:40:47.886Z,31.32
2022-08-22T09:41:47.891Z,31.23
2022-08-22T09:42:47.866Z,31.25
2022-08-22T09:43:48.710Z,31.25
2022-08-22T09:44:47.842Z,31.41
2022-08-22T09:45:47.926Z,31.69
2022-08-22T09:46:47.922Z,31.34
2022-08-22T09:47:47.831Z,31.14
2022-08-22T09:48:47.805Z,31.19
2022-08-22T09:49:47.806Z,31.23
2022-08-22T09:50:47.821Z,31.48
2022-08-22T09:51:48.775Z,31.46
2022-08-22T09:52:47.764Z,31.26
2022-08-22T09:53:47.758Z,31.21
2022-08-22T09:54:47.739Z,31.23
2022-08-22T09:55:47.730Z,30.79
2022-08-22T09:56:47.747Z,30.65
2022-08-22T09:57:47.718Z,30.75
2022-08-22T09:58:47.719Z,30.79
2022-08-22T09:59:47.693Z,30.86
2022-08-22T10:00:47.758Z,30.86
2022-08-22T10:01:47.709Z,30.89
2022-08-22T10:02:50.256Z,31.09
2022-08-22T10:03:47.727Z,31.21
2022-08-22T10:04:47.664Z,31.17
2022-08-22T10:05:47.649Z,31.17
2022-08-22T10:06:47.635Z,31.16
2022-08-22T10:07:47.667Z,30.67
2022-08-22T10:08:48.628Z,30.47
2022-08-22T10:09:47.608Z,30.37
2022-08-22T10:10:48.604Z,30.35
2022-08-22T10:11:47.596Z,30.19
2022-08-22T10:12:47.626Z,30.29
2022-08-22T10:13:47.578Z,30.34
2022-08-22T10:14:50.463Z,30.29
2022-08-22T10:15:47.562Z,30.38
2022-08-22T10:16:47.557Z,30.24
2022-08-22T10:17:47.539Z,30.07
2022-08-22T10:18:52.846Z,30.00
2022-08-22T10:19:47.544Z,29.94
2022-08-22T10:20:47.514Z,29.97
2022-08-22T10:21:47.505Z,29.97
2022-08-22T10:22:47.488Z,29.87
2022-08-22T10:23:47.484Z,29.80
2022-08-22T10:24:47.492Z,29.68
2022-08-22T10:25:47.462Z,29.68
2022-08-22T10:26:47.465Z,29.90
2022-08-22T10:27:47.452Z,29.82
2022-08-22T10:28:47.438Z,29.95
2022-08-22T10:29:47.443Z,29.95
2022-08-22T10:30:47.414Z,29.78
2022-08-22T10:31:59.249Z,29.87
2022-08-22T10:32:48.394Z,30.05
2022-08-22T10:33:47.409Z,30.16
2022-08-22T10:34:47.400Z,30.15
2022-08-22T10:35:47.371Z,30.17
2022-08-22T10:36:47.361Z,30.23
2022-08-22T10:37:47.371Z,30.22
2022-08-22T10:38:47.335Z,30.42
2022-08-22T10:39:47.401Z,30.51
2022-08-22T10:40:47.645Z,30.37
2022-08-22T10:41:47.343Z,30.27
2022-08-22T10:42:47.309Z,30.15
2022-08-22T10:43:47.302Z,30.08
2022-08-22T10:44:47.297Z,30.04
2022-08-22T10:45:47.310Z,30.19
2022-08-22T10:46:48.285Z,30.22
2022-08-22T10:47:47.266Z,30.04
2022-08-22T10:48:47.256Z,30.15
2022-08-22T10:49:47.246Z,29.90
2022-08-22T10:50:47.265Z,29.78
2022-08-22T10:51:47.291Z,29.74
2022-08-22T10:52:47.213Z,29.63
2022-08-22T10:53:47.236Z,29.65
2022-08-22T10:54:47.192Z,29.68
2022-08-22T10:55:47.176Z,29.86
2022-08-22T10:56:47.193Z,29.95
2022-08-22T10:57:52.127Z,29.97
2022-08-22T10:58:49.178Z,30.11
2022-08-22T10:59:47.866Z,30.08
2022-08-22T11:00:49.986Z,29.94
2022-08-22T11:01:47.204Z,30.13
2022-08-22T11:02:47.113Z,30.16
2022-08-22T11:03:47.123Z,29.90
2022-08-22T11:04:47.099Z,29.87
2022-08-22T11:05:50.131Z,29.87
2022-08-22T11:06:47.091Z,29.95
2022-08-22T11:07:48.800Z,29.82
2022-08-22T11:08:47.060Z,29.74
2022-08-22T11:09:47.051Z,29.87
2022-08-22T11:10:47.051Z,29.85
2022-08-22T11:11:47.566Z,29.73
2022-08-22T11:12:47.045Z,29.83
2022-08-22T11:13:47.015Z,29.86
2022-08-22T11:14:47.012Z,30.02
2022-08-22T11:15:46.997Z,30.08
2022-08-22T11:16:47.012Z,29.92
2022-08-22T11:17:53.975Z,29.90
2022-08-22T11:19:02.705Z,29.68
2022-08-22T11:19:47.987Z,29.78
2022-08-22T11:20:46.952Z,29.57
2022-08-22T11:21:46.947Z,29.53
2022-08-22T11:22:47.214Z,29.71
2022-08-22T11:23:46.921Z,29.68
2022-08-22T11:24:56.424Z,29.87
2022-08-22T11:25:52.485Z,29.85
2022-08-22T11:26:47.939Z,29.94
2022-08-22T11:27:46.887Z,29.95
2022-08-22T11:28:46.890Z,30.05
2022-08-22T11:29:46.872Z,29.92
2022-08-22T11:30:46.890Z,29.89
2022-08-22T11:31:51.397Z,29.95
2022-08-22T11:32:46.859Z,29.87
2022-08-22T11:33:47.779Z,29.94
2022-08-22T11:34:46.821Z,29.89
2022-08-22T11:35:46.862Z,29.85
2022-08-22T11:36:46.809Z,29.98
2022-08-22T11:37:46.808Z,30.19
2022-08-22T11:38:46.798Z,29.87
2022-08-22T11:39:47.143Z,29.90
2022-08-22T11:40:46.774Z,29.68
2022-08-22T11:41:48.410Z,29.43
2022-08-22T11:42:47.877Z,29.24
2022-08-22T11:43:46.756Z,29.12
2022-08-22T11:44:50.823Z,29.23
2022-08-22T11:45:46.737Z,29.49
2022-08-22T11:46:46.733Z,29.63
2022-08-22T11:47:46.705Z,29.71
2022-08-22T11:48:48.670Z,29.80
2022-08-22T11:49:46.686Z,29.71
2022-08-22T11:50:46.677Z,29.63
2022-08-22T11:51:46.670Z,29.61
2022-08-22T11:52:51.752Z,29.65
2022-08-22T11:53:47.668Z,29.76
2022-08-22T11:54:46.641Z,29.80
2022-08-22T11:55:46.629Z,29.95
2022-08-22T11:56:46.641Z,30.04
2022-08-22T11:57:46.634Z,30.24
2022-08-22T11:58:46.609Z,30.13
2022-08-22T11:59:46.601Z,29.89
2022-08-22T12:00:46.603Z,29.87
2022-08-22T12:01:46.617Z,29.94
2022-08-22T12:02:47.497Z,30.10
2022-08-22T12:03:46.581Z,30.24
2022-08-22T12:04:47.641Z,30.04
2022-08-22T12:05:46.576Z,29.86
2022-08-22T12:06:46.773Z,29.86
2022-08-22T12:07:50.556Z,29.85
2022-08-22T12:08:47.516Z,29.87
2022-08-22T12:09:47.789Z,29.97
2022-08-22T12:10:46.532Z,30.15
2022-08-22T12:11:46.479Z,30.24
2022-08-22T12:12:46.552Z,30.29
2022-08-22T12:13:46.469Z,30.42
2022-08-22T12:14:46.480Z,30.32
2022-08-22T12:15:47.460Z,30.49
2022-08-22T12:16:47.513Z,30.51
2022-08-22T12:17:55.188Z,30.54
2022-08-22T12:18:47.433Z,30.39
2022-08-22T12:20:12.881Z,30.23
2022-08-22T12:20:48.420Z,29.83
2022-08-22T12:21:46.401Z,29.51
2022-08-22T12:22:49.786Z,29.27
2022-08-22T12:23:49.195Z,29.43
2022-08-22T12:24:46.436Z,29.58
2022-08-22T12:25:46.412Z,29.61
2022-08-22T12:26:46.356Z,29.82
2022-08-22T12:27:48.232Z,29.83
2022-08-22T12:28:46.339Z,29.94
2022-08-22T12:29:46.329Z,29.68
2022-08-22T12:30:46.346Z,29.71
2022-08-22T12:31:46.316Z,29.70
2022-08-22T12:32:46.297Z,29.76
2022-08-22T12:33:46.289Z,29.79
2022-08-22T12:34:46.283Z,30.04
2022-08-22T12:35:46.299Z,30.19
2022-08-22T12:36:46.271Z,30.00
2022-08-22T12:37:52.934Z,29.95
2022-08-22T12:38:46.239Z,29.97
2022-08-22T12:39:46.252Z,30.11
2022-08-22T12:40:46.248Z,30.07
2022-08-22T12:41:46.722Z,30.19
2022-08-22T12:42:46.281Z,30.08
2022-08-22T12:43:46.226Z,30.08
2022-08-22T12:44:46.215Z,30.07
2022-08-22T12:45:46.192Z,29.97